Time;durP1;ratioP1;P1;durP2;ratioP2;P2;SDS_P1;SDS_P2;PMS_P1;PMS_P2;Temp;Humidity;BMP_temperature;BMP_pressure;BME280_temperature;BME280_humidity;BME280_pressure;Samples;Min_cycle;Max_cycle;Signal;HPM_P1;HPM_P2
2021/09/14 00:02:12;;;;;;;;;9.00;9.00;;;;;20.14;65.52;100693.16;5082400;28;45230;-76
2021/09/14 00:04:37;;;;;;;;;9.00;9.00;;;;;20.13;65.22;100683.44;5082222;28;45420;-76
2021/09/14 00:07:03;;;;;;;;;11.00;11.00;;;;;20.13;65.80;100679.91;5082223;28;46438;-76
2021/09/14 00:09:29;;;;;;;;;12.00;12.00;;;;;20.12;65.55;100689.06;5082124;28;45215;-75
2021/09/14 00:11:54;;;;;;;;;9.67;9.67;;;;;20.16;65.45;100690.22;5081756;28;45264;-75
2021/09/14 00:14:20;;;;;;;;;10.00;10.00;;;;;20.15;66.03;100678.63;5081431;27;45330;-75
2021/09/14 00:16:45;;;;;;;;;8.33;8.33;;;;;20.12;65.67;100673.72;5080194;28;47945;-75
2021/09/14 00:19:10;;;;;;;;;9.33;9.33;;;;;20.15;65.66;100677.78;5081522;28;45304;-75
2021/09/14 00:21:36;;;;;;;;;12.67;11.67;;;;;20.18;65.69;100680.00;5081607;28;45325;-76
2021/09/14 00:24:01;;;;;;;;;14.33;11.33;;;;;20.19;65.56;100687.03;5081202;28;45476;-75
2021/09/14 00:26:27;;;;;;;;;11.67;11.67;;;;;20.21;65.88;100676.00;5081383;28;45494;-75
2021/09/14 00:28:52;;;;;;;;;11.33;9.67;;;;;20.21;65.72;100666.03;5081159;28;45326;-75
2021/09/14 00:31:17;;;;;;;;;10.00;10.00;;;;;20.17;65.86;100657.59;5064557;27;45341;-75
2021/09/14 00:33:43;;;;;;;;;10.00;8.67;;;;;20.21;65.54;100670.63;5060945;28;45478;-76
2021/09/14 00:36:08;;;;;;;;;10.33;10.33;;;;;20.15;65.93;100653.50;5060700;28;45430;-76
2021/09/14 00:38:33;;;;;;;;;7.67;7.67;;;;;20.11;66.42;100649.66;5060904;28;45323;-76
2021/09/14 00:40:59;;;;;;;;;12.33;11.00;;;;;20.05;65.98;100673.84;5059783;28;45788;-75
2021/09/14 00:43:24;;;;;;;;;11.67;11.33;;;;;20.03;65.99;100669.75;5060693;28;45220;-76
2021/09/14 00:45:50;;;;;;;;;10.00;10.00;;;;;20.00;66.05;100664.78;5060456;28;46152;-76
2021/09/14 00:48:15;;;;;;;;;11.00;9.00;;;;;19.98;66.42;100672.28;5060841;28;45308;-76
2021/09/14 00:50:42;;;;;;;;;11.00;10.00;;;;;19.95;66.27;100665.50;5060828;28;46416;-75
2021/09/14 00:53:08;;;;;;;;;12.33;10.33;;;;;19.91;66.03;100661.66;5060922;28;46077;-75
2021/09/14 00:55:33;;;;;;;;;11.00;9.67;;;;;19.87;66.43;100680.19;5059122;28;47255;-75
2021/09/14 00:57:59;;;;;;;;;12.00;11.00;;;;;19.85;66.24;100681.47;5060437;28;45328;-75
2021/09/14 01:00:24;;;;;;;;;9.00;9.00;;;;;19.78;66.59;100674.34;5059453;28;45367;-75
2021/09/14 01:02:50;;;;;;;;;9.00;9.00;;;;;19.78;66.67;100668.94;5058987;28;46217;-75
2021/09/14 01:05:16;;;;;;;;;10.33;9.33;;;;;19.76;66.84;100670.25;5059188;28;46932;-75
2021/09/14 01:07:42;;;;;;;;;12.00;11.00;;;;;19.68;66.76;100669.56;5060391;28;45806;-75
2021/09/14 01:10:10;;;;;;;;;10.33;10.33;;;;;19.65;67.22;100677.28;5058666;28;45461;-75
2021/09/14 01:12:36;;;;;;;;;8.67;8.67;;;;;19.62;67.06;100673.22;5060155;28;45280;-75
2021/09/14 01:15:02;;;;;;;;;13.00;12.33;;;;;19.60;67.40;100669.91;5058854;28;47189;-75
2021/09/14 01:17:27;;;;;;;;;10.33;10.33;;;;;19.55;67.33;100656.34;5060300;28;45177;-75
2021/09/14 01:19:52;;;;;;;;;9.33;9.33;;;;;19.48;67.48;100655.66;5060461;28;45384;-75
2021/09/14 01:22:18;;;;;;;;;10.33;10.00;;;;;19.42;67.60;100654.69;5058914;28;45882;-75
2021/09/14 01:24:44;;;;;;;;;8.67;8.67;;;;;19.37;68.04;100663.53;5058557;28;47319;-75
2021/09/14 01:27:10;;;;;;;;;11.00;10.67;;;;;19.33;68.45;100670.41;5058907;28;45373;-75
2021/09/14 01:32:19;;;;;;;;;14.33;11.00;;;;;19.25;68.64;100676.16;5080247;28;45338;-75
2021/09/14 01:34:44;;;;;;;;;9.00;9.00;;;;;19.19;68.91;100667.16;5080039;28;45344;-75
2021/09/14 01:37:10;;;;;;;;;10.33;9.33;;;;;19.18;68.85;100674.41;5080269;28;45384;-75
2021/09/14 01:39:35;;;;;;;;;12.67;12.67;;;;;19.15;68.72;100663.25;5079170;28;45295;-75
2021/09/14 01:42:01;;;;;;;;;10.33;9.00;;;;;19.18;68.93;100676.25;5078631;28;46226;-75
2021/09/14 01:44:26;;;;;;;;;11.33;11.33;;;;;19.20;69.10;100676.03;5079939;28;46192;-75
2021/09/14 01:46:52;;;;;;;;;12.00;10.00;;;;;19.18;69.29;100679.78;5080286;28;45317;-75
2021/09/14 01:49:18;;;;;;;;;10.67;10.67;;;;;19.14;69.68;100692.09;5080338;27;45295;-75
2021/09/14 01:51:43;;;;;;;;;12.33;11.00;;;;;19.11;69.52;100700.63;5080131;28;45276;-75
2021/09/14 01:54:09;;;;;;;;;11.00;11.00;;;;;19.08;69.45;100703.78;5079853;28;46320;-75
2021/09/14 01:56:35;;;;;;;;;11.00;11.00;;;;;19.09;69.61;100708.13;5080119;28;45287;-75
2021/09/14 01:59:03;;;;;;;;;10.00;10.00;;;;;19.11;69.58;100721.34;5079967;28;45250;-75
2021/09/14 02:01:36;;;;;;;;;12.33;11.00;;;;;19.08;69.82;100735.28;5080070;28;45229;-75
2021/09/14 02:07:16;;;;;;;;;12.00;11.00;;;;;19.11;69.80;100751.81;5079841;28;45278;-75
2021/09/14 02:56:17;;;;;;;;;14.33;11.00;;;;;19.00;72.75;100709.47;5062520;28;45275;-76
2021/09/14 03:00:41;;;;;;;;;15.00;14.00;;;;;18.95;73.52;100694.03;5062494;28;45413;-75
2021/09/14 03:03:06;;;;;;;;;15.00;14.00;;;;;18.91;73.97;100717.88;5062588;28;45340;-74
2021/09/14 03:05:32;;;;;;;;;13.33;13.33;;;;;18.89;73.86;100714.59;5062392;28;45446;-75
2021/09/14 03:07:57;;;;;;;;;15.33;15.00;;;;;18.88;73.76;100701.38;5060622;28;47288;-75
2021/09/14 03:10:22;;;;;;;;;13.67;13.67;;;;;18.88;74.16;100693.28;5062237;28;45270;-74
2021/09/14 03:12:48;;;;;;;;;15.00;14.00;;;;;18.85;74.57;100680.31;5061015;28;45362;-74
2021/09/14 03:15:13;;;;;;;;;14.00;13.67;;;;;18.89;74.37;100674.22;5062184;28;45465;-75
2021/09/14 03:17:39;;;;;;;;;17.33;17.33;;;;;18.92;74.68;100662.19;5060808;28;46929;-75
2021/09/14 03:20:05;;;;;;;;;15.00;14.00;;;;;18.95;74.76;100648.25;5062145;28;45169;-75
2021/09/14 03:22:30;;;;;;;;;17.00;15.67;;;;;18.98;74.75;100633.50;5062288;28;45223;-75
2021/09/14 03:24:56;;;;;;;;;17.00;15.67;;;;;18.95;74.93;100628.56;5061868;28;45211;-75
2021/09/14 03:27:22;;;;;;;;;18.00;15.00;;;;;18.97;74.68;100638.06;5061982;28;45914;-75
2021/09/14 03:29:47;;;;;;;;;14.67;14.00;;;;;18.92;74.52;100635.25;5065894;28;45234;-75
2021/09/14 03:32:13;;;;;;;;;16.00;15.67;;;;;18.92;74.56;100641.44;5082422;28;45275;-75
2021/09/14 03:34:38;;;;;;;;;13.00;13.00;;;;;18.88;74.74;100637.56;5080372;28;46171;-74
2021/09/14 03:37:04;;;;;;;;;16.67;16.67;;;;;18.87;74.88;100624.34;5080492;28;48203;-74
2021/09/14 03:39:29;;;;;;;;;13.67;13.67;;;;;18.87;75.00;100627.88;5082215;28;45251;-75
2021/09/14 03:41:54;;;;;;;;;13.33;13.00;;;;;18.86;75.09;100625.41;5080930;28;45397;-74
2021/09/14 03:44:20;;;;;;;;;12.33;12.00;;;;;18.85;74.54;100607.63;5081847;28;45413;-74
2021/09/14 03:46:45;;;;;;;;;12.00;11.33;;;;;18.83;74.86;100593.56;5082015;28;45338;-74
2021/09/14 03:49:10;;;;;;;;;17.00;15.00;;;;;18.85;75.11;100596.84;5082004;28;45389;-74
2021/09/14 03:51:36;;;;;;;;;15.00;15.00;;;;;18.84;75.21;100589.81;5082062;28;45244;-74
2021/09/14 03:54:02;;;;;;;;;19.67;18.33;;;;;18.78;74.99;100580.81;5081831;28;45308;-74
2021/09/14 03:56:28;;;;;;;;;18.67;16.33;;;;;18.80;74.99;100584.09;5080638;28;48535;-74
2021/09/14 03:58:53;;;;;;;;;16.33;16.00;;;;;18.83;75.27;100577.41;5081636;28;45349;-74
2021/09/14 04:01:18;;;;;;;;;14.00;13.67;;;;;18.82;74.95;100573.88;5080710;28;45327;-74
2021/09/14 04:03:50;;;;;;;;;15.00;15.00;;;;;18.84;75.17;100573.66;5081841;27;45302;-74
2021/09/14 04:08:56;;;;;;;;;13.67;13.67;;;;;18.78;75.72;100560.09;5081584;28;45275;-74
2021/09/14 04:11:23;;;;;;;;;16.00;15.67;;;;;18.78;75.27;100559.25;5081820;28;45201;-75
2021/09/14 04:13:49;;;;;;;;;14.00;13.00;;;;;18.78;75.41;100568.16;5081459;28;45489;-75
2021/09/14 04:16:15;;;;;;;;;17.67;16.33;;;;;18.78;75.66;100575.41;5081418;28;46187;-75
2021/09/14 04:18:40;;;;;;;;;16.00;16.00;;;;;18.73;76.03;100570.72;5080242;28;45401;-75
2021/09/14 04:21:06;;;;;;;;;16.33;15.67;;;;;18.71;75.91;100578.22;5081617;28;45465;-74
2021/09/14 04:23:31;;;;;;;;;16.33;16.33;;;;;18.70;75.74;100590.03;5080084;28;46327;-75
2021/09/14 04:25:57;;;;;;;;;17.67;15.00;;;;;18.68;75.71;100587.56;5081103;28;46303;-75
2021/09/14 04:28:22;;;;;;;;;17.33;17.00;;;;;18.68;75.54;100584.88;5079825;28;45232;-75
2021/09/14 04:30:48;;;;;;;;;17.33;15.67;;;;;18.67;75.62;100580.56;5068915;28;45306;-74
2021/09/14 04:33:13;;;;;;;;;14.00;13.00;;;;;18.70;75.84;100602.69;5060927;28;45505;-74
2021/09/14 04:35:38;;;;;;;;;14.67;14.00;;;;;18.66;76.04;100621.16;5060450;28;45342;-75
2021/09/14 04:38:04;;;;;;;;;17.00;16.00;;;;;18.67;76.22;100614.72;5059520;28;45325;-74
2021/09/14 04:40:30;;;;;;;;;16.00;16.00;;;;;18.65;75.77;100611.47;5059803;28;45244;-74
2021/09/14 04:42:56;;;;;;;;;15.67;15.67;;;;;18.66;76.64;100605.84;5059319;28;45472;-74
2021/09/14 04:45:21;;;;;;;;;16.33;15.67;;;;;18.67;75.87;100606.66;5058121;28;46109;-74
2021/09/14 04:47:47;;;;;;;;;13.67;13.67;;;;;18.67;76.38;100595.88;5059540;28;45153;-75
2021/09/14 04:50:12;;;;;;;;;16.00;16.00;;;;;18.66;75.83;100595.06;5059627;28;45221;-74
2021/09/14 04:52:38;;;;;;;;;14.67;14.33;;;;;18.67;76.03;100595.88;5057854;28;47101;-74
2021/09/14 04:55:04;;;;;;;;;14.67;14.00;;;;;18.66;76.08;100578.94;5059345;28;46282;-74
2021/09/14 04:57:29;;;;;;;;;14.00;14.00;;;;;18.70;75.92;100571.19;5058749;28;45759;-74
2021/09/14 04:59:54;;;;;;;;;18.00;17.00;;;;;18.67;76.23;100564.41;5059240;28;45394;-74
2021/09/14 05:02:20;;;;;;;;;18.00;18.00;;;;;18.66;76.21;100573.53;5059225;28;45375;-74
2021/09/14 05:04:46;;;;;;;;;17.67;16.00;;;;;18.67;76.42;100579.72;5059081;28;45421;-74
2021/09/14 05:07:11;;;;;;;;;14.67;14.67;;;;;18.63;76.12;100563.25;5056868;28;46064;-74
2021/09/14 05:09:36;;;;;;;;;15.00;15.00;;;;;18.66;76.24;100552.03;5057017;28;45367;-74
2021/09/14 05:12:02;;;;;;;;;16.33;14.33;;;;;18.67;76.55;100553.66;5059041;28;45248;-74
2021/09/14 05:14:27;;;;;;;;;16.33;16.33;;;;;18.67;76.07;100552.81;5058292;28;46472;-75
2021/09/14 05:16:52;;;;;;;;;18.00;18.00;;;;;18.65;75.71;100560.31;5059058;28;45351;-75
2021/09/14 05:19:29;;;;;;;;;15.33;15.33;;;;;18.67;76.34;100579.72;5059046;28;45533;-75
2021/09/14 05:21:55;;;;;;;;;15.00;15.00;;;;;18.64;76.61;100593.66;5059386;28;45228;-76
2021/09/14 05:24:20;;;;;;;;;16.00;16.00;;;;;18.63;76.60;100605.47;5059468;28;45295;-75
2021/09/14 05:26:45;;;;;;;;;14.00;12.67;;;;;18.60;76.57;100608.63;5061918;28;45347;-76
2021/09/14 05:29:11;;;;;;;;;14.00;14.00;;;;;18.59;76.60;100631.22;5062477;28;45238;-74
2021/09/14 05:31:36;;;;;;;;;17.33;17.33;;;;;18.58;76.81;100625.00;5057036;28;46050;-75
2021/09/14 05:34:02;;;;;;;;;17.00;16.00;;;;;18.57;76.87;100630.63;5058584;28;45299;-74
2021/09/14 05:36:27;;;;;;;;;18.00;16.67;;;;;18.55;76.62;100637.06;5021277;28;1170274;-76
2021/09/14 05:38:53;;;;;;;;;15.00;15.00;;;;;18.57;77.12;100660.22;5067273;28;46073;-75
2021/09/14 05:41:18;;;;;;;;;14.33;13.33;;;;;18.57;77.35;100679.88;5063427;28;45342;-76
2021/09/14 05:43:43;;;;;;;;;12.33;12.33;;;;;18.57;77.45;100674.50;5059959;28;45205;-74
2021/09/14 05:46:09;;;;;;;;;13.67;13.67;;;;;18.55;77.88;100669.34;5061634;28;45148;-76
2021/09/14 05:48:34;;;;;;;;;15.33;13.00;;;;;18.57;77.17;100673.69;5059974;28;45277;-76
2021/09/14 05:51:00;;;;;;;;;14.00;14.00;;;;;18.54;76.96;100666.88;5059224;28;47210;-76
2021/09/14 05:53:25;;;;;;;;;14.00;11.67;;;;;18.54;77.47;100661.50;5059110;28;48121;-76
2021/09/14 05:55:51;;;;;;;;;14.00;14.00;;;;;18.52;76.58;100658.22;5060283;28;45422;-76
2021/09/14 05:58:16;;;;;;;;;13.67;13.67;;;;;18.48;77.75;100655.19;5057878;28;45403;-76
2021/09/14 06:00:42;;;;;;;;;12.67;12.67;;;;;18.45;77.72;100652.13;5059740;28;45386;-77
2021/09/14 06:03:07;;;;;;;;;15.67;15.00;;;;;18.39;78.39;100637.72;5058509;28;47505;-77
2021/09/14 06:05:33;;;;;;;;;15.67;15.67;;;;;18.39;78.31;100640.41;5065449;28;45414;-78
2021/09/14 06:07:58;;;;;;;;;13.67;13.67;;;;;18.36;78.48;100636.31;5057842;28;45383;-80
2021/09/14 06:10:23;;;;;;;;;15.67;15.00;;;;;18.37;78.84;100640.63;5058045;28;47021;-77
2021/09/14 06:12:49;;;;;;;;;13.00;12.33;;;;;18.39;78.49;100643.94;5058731;28;45302;-77
2021/09/14 06:15:15;;;;;;;;;15.67;15.33;;;;;18.36;79.28;100639.00;5060072;28;45323;-78
2021/09/14 06:17:46;;;;;;;;;17.00;17.00;;;;;18.39;79.20;100640.41;5061844;28;45341;-80
2021/09/14 06:20:12;;;;;;;;;11.67;11.33;;;;;18.46;79.27;100637.63;5063824;28;45342;-78
2021/09/14 06:22:38;;;;;;;;;12.33;12.33;;;;;18.42;79.09;100619.25;5068691;28;45338;-78
2021/09/14 06:25:04;;;;;;;;;12.00;10.67;;;;;18.47;79.44;100639.25;5063121;28;45284;-79
2021/09/14 06:27:29;;;;;;;;;12.67;12.67;;;;;18.57;79.39;100642.22;5063243;28;45295;-78
2021/09/14 06:29:55;;;;;;;;;9.33;9.33;;;;;18.60;79.19;100647.13;5063482;28;45422;-80
2021/09/14 06:32:20;;;;;;;;;13.33;12.67;;;;;18.57;80.13;100642.22;5062512;28;45916;-79
2021/09/14 06:34:46;;;;;;;;;10.00;10.00;;;;;18.66;79.56;100653.47;5062112;28;45392;-79
2021/09/14 06:37:11;;;;;;;;;8.33;8.00;;;;;18.72;79.82;100663.31;5060335;28;45338;-79
2021/09/14 06:39:37;;;;;;;;;12.00;12.00;;;;;18.75;79.49;100670.09;5061190;28;45256;-79
2021/09/14 06:42:03;;;;;;;;;13.00;12.67;;;;;18.79;79.68;100682.88;5061994;28;45861;-80
2021/09/14 06:44:29;;;;;;;;;10.67;10.67;;;;;18.82;79.98;100699.63;5060715;28;45386;-80
2021/09/14 06:47:02;;;;;;;;;12.67;12.67;;;;;18.82;80.31;100715.78;5059850;28;45386;-80
2021/09/14 06:49:33;;;;;;;;;13.00;12.67;;;;;18.81;80.60;100720.31;5058517;28;46926;-79
2021/09/14 06:51:59;;;;;;;;;13.67;12.00;;;;;18.78;80.16;100732.38;5057047;28;45496;-80
2021/09/14 06:54:24;;;;;;;;;16.33;16.33;;;;;18.86;80.00;100754.66;5058348;28;45504;-80
2021/09/14 06:56:50;;;;;;;;;15.33;13.67;;;;;18.90;79.87;100766.59;5064674;28;45480;-80
2021/09/14 06:59:18;;;;;;;;;17.67;16.33;;;;;18.95;80.37;100790.13;5062187;28;45795;-79
2021/09/14 07:01:45;;;;;;;;;14.67;14.67;;;;;18.94;80.09;100792.00;5059490;28;46659;-77
2021/09/14 07:04:11;;;;;;;;;15.67;13.67;;;;;18.97;79.90;100805.00;5057784;28;45501;-82
2021/09/14 07:06:37;;;;;;;;;10.67;10.67;;;;;18.98;80.14;100798.59;5057200;28;45404;-78
2021/09/14 07:09:03;;;;;;;;;10.00;10.00;;;;;18.97;79.91;100783.47;5060146;28;45331;-78
2021/09/14 07:11:28;;;;;;;;;9.33;9.00;;;;;19.00;79.82;100777.63;5062496;28;46088;-77
2021/09/14 07:13:53;;;;;;;;;11.00;11.00;;;;;18.99;79.27;100767.91;5061983;28;45376;-79
2021/09/14 07:16:19;;;;;;;;;11.00;11.00;;;;;19.02;79.91;100769.31;5062506;28;45295;-77
2021/09/14 07:18:46;;;;;;;;;7.33;7.33;;;;;19.02;79.50;100756.69;5062336;28;45255;-77
2021/09/14 07:21:12;;;;;;;;;9.33;9.33;;;;;19.03;80.22;100755.63;5062109;28;45685;-77
2021/09/14 07:23:37;;;;;;;;;10.00;9.67;;;;;19.04;80.20;100740.28;5062240;28;45263;-78
2021/09/14 07:26:02;;;;;;;;;9.00;9.00;;;;;19.05;80.03;100731.97;5062249;28;45277;-78
2021/09/14 07:28:28;;;;;;;;;8.33;8.33;;;;;19.08;80.09;100716.44;5060671;28;46177;-78
2021/09/14 07:30:53;;;;;;;;;10.33;9.00;;;;;19.08;80.11;100716.44;5060466;28;47017;-78
2021/09/14 07:33:19;;;;;;;;;9.00;8.00;;;;;19.12;80.20;100731.06;5062056;28;45193;-78
2021/09/14 07:35:44;;;;;;;;;8.67;8.67;;;;;19.13;80.33;100727.34;5062128;28;45480;-78
2021/09/14 07:38:11;;;;;;;;;11.00;9.67;;;;;19.16;80.34;100726.88;5061813;28;45338;-78
2021/09/14 07:40:37;;;;;;;;;8.67;8.33;;;;;19.20;80.04;100719.13;5062028;28;46055;-77
2021/09/14 07:43:03;;;;;;;;;9.00;8.67;;;;;19.24;80.17;100723.81;5060412;28;45382;-78
2021/09/14 07:45:30;;;;;;;;;8.33;8.33;;;;;19.27;80.20;100715.28;5060357;28;45248;-77
2021/09/14 07:47:55;;;;;;;;;9.00;9.00;;;;;19.24;79.89;100694.19;5060480;28;45692;-77
2021/09/14 07:50:23;;;;;;;;;11.00;8.33;;;;;19.29;79.60;100661.16;5060291;28;46995;-77
2021/09/14 07:52:50;;;;;;;;;8.00;8.00;;;;;19.30;79.67;100644.75;5061707;28;45236;-78
2021/09/14 07:55:15;;;;;;;;;10.33;8.67;;;;;19.30;80.21;100631.28;5060382;28;45351;-78
2021/09/14 07:57:41;;;;;;;;;6.00;6.00;;;;;19.26;80.61;100650.84;5061459;28;45501;-77
2021/09/14 08:00:07;;;;;;;;;10.33;8.00;;;;;19.26;79.95;100675.09;5060132;28;47470;-77
2021/09/14 08:02:32;;;;;;;;;10.33;9.33;;;;;19.30;80.02;100690.56;5060304;28;45327;-77
2021/09/14 08:04:58;;;;;;;;;8.67;7.67;;;;;19.34;80.15;100682.84;5059772;28;45308;-77
2021/09/14 08:07:24;;;;;;;;;7.33;7.33;;;;;19.41;80.20;100671.94;5062654;28;45801;-77
2021/09/14 08:09:49;;;;;;;;;11.33;8.33;;;;;19.47;80.10;100656.69;5069244;28;45268;-77
2021/09/14 08:12:15;;;;;;;;;12.00;11.00;;;;;19.50;80.00;100645.44;5066550;28;45209;-77
2021/09/14 08:14:40;;;;;;;;;11.33;10.67;;;;;19.51;80.00;100644.38;5066935;28;45251;-77
2021/09/14 08:17:06;;;;;;;;;8.67;8.00;;;;;19.58;80.26;100655.03;5064473;28;45244;-76
2021/09/14 08:19:31;;;;;;;;;12.00;12.00;;;;;19.64;80.26;100660.28;5065969;28;45611;-77
2021/09/14 08:21:58;;;;;;;;;10.67;8.33;;;;;19.73;80.36;100660.78;5061991;28;45843;-77
2021/09/14 08:24:24;;;;;;;;;12.33;11.33;;;;;19.82;80.35;100666.59;5063143;28;45169;-75
2021/09/14 08:26:49;;;;;;;;;10.00;10.00;;;;;19.93;80.21;100660.34;5059757;28;45728;-76
2021/09/14 08:29:15;;;;;;;;;11.67;9.67;;;;;20.03;79.76;100669.75;5054324;28;46170;-76
2021/09/14 08:31:40;;;;;;;;;13.00;12.00;;;;;20.09;80.15;100671.50;5059856;28;45350;-75
2021/09/14 08:34:06;;;;;;;;;12.33;11.67;;;;;20.19;80.46;100681.66;5061013;28;45320;-75
2021/09/14 08:36:32;;;;;;;;;11.33;11.33;;;;;20.24;79.70;100689.84;5060220;28;45556;-75
2021/09/14 08:38:58;;;;;;;;;8.67;8.67;;;;;20.32;80.25;100694.03;5057908;28;47668;-75
2021/09/14 08:41:23;;;;;;;;;12.33;12.33;;;;;20.39;80.03;100701.97;5059204;28;45792;-75
2021/09/14 08:43:50;;;;;;;;;9.00;7.33;;;;;20.48;80.38;100705.13;5060437;28;45390;-74
2021/09/14 08:46:18;;;;;;;;;9.00;9.00;;;;;20.55;79.76;100716.56;5058831;28;46180;-75
2021/09/14 08:48:45;;;;;;;;;11.67;10.67;;;;;20.62;80.17;100719.94;5059498;28;45465;-75
2021/09/14 08:51:11;;;;;;;;;9.33;9.33;;;;;20.71;79.82;100728.47;5059739;28;45379;-75
2021/09/14 08:53:37;;;;;;;;;11.00;9.67;;;;;20.74;79.68;100729.88;5059213;28;45343;-75
2021/09/14 08:56:06;;;;;;;;;14.67;13.33;;;;;20.77;79.72;100741.00;5060600;28;45418;-75
2021/09/14 08:58:32;;;;;;;;;10.00;10.00;;;;;20.77;79.96;100735.59;5058681;28;46698;-75
2021/09/14 09:00:58;;;;;;;;;9.67;9.33;;;;;20.76;79.37;100741.25;5052024;28;45324;-74
2021/09/14 09:03:28;;;;;;;;;9.00;9.00;;;;;20.78;79.43;100734.56;5056194;28;45668;-74
2021/09/14 09:05:54;;;;;;;;;11.00;11.00;;;;;20.77;79.91;100738.28;5054639;28;46306;-74
2021/09/14 09:08:25;;;;;;;;;11.67;11.00;;;;;20.77;80.04;100734.78;5055805;28;45964;-75
2021/09/14 09:11:09;;;;;;;;;10.00;10.00;;;;;20.76;79.96;100739.38;5053735;28;45968;-74
2021/09/14 09:13:55;;;;;;;;;12.67;11.67;;;;;20.72;80.30;100751.72;5053748;28;45480;-74
2021/09/14 09:16:25;;;;;;;;;11.00;11.00;;;;;20.68;80.13;100754.06;5046394;28;45418;-74
2021/09/14 09:18:52;;;;;;;;;13.33;11.33;;;;;20.66;79.79;100752.69;5056559;28;45649;-74
2021/09/14 09:21:18;;;;;;;;;11.00;10.00;;;;;20.66;79.68;100761.63;5057332;28;45816;-74
2021/09/14 09:23:44;;;;;;;;;9.33;8.67;;;;;20.64;79.79;100765.59;5048639;28;45320;-74
2021/09/14 09:26:10;;;;;;;;;13.00;13.00;;;;;20.61;79.72;100777.72;5054730;28;45390;-74
2021/09/14 09:28:36;;;;;;;;;11.33;11.33;;;;;20.59;80.25;100770.91;5056591;28;45367;-75
2021/09/14 09:31:09;;;;;;;;;12.67;12.33;;;;;20.64;80.14;100779.09;5055117;28;45414;-74
2021/09/14 09:33:35;;;;;;;;;14.00;12.67;;;;;20.67;79.85;100767.81;5046050;28;45356;-75
2021/09/14 09:36:05;;;;;;;;;12.67;12.00;;;;;20.75;80.17;100770.16;5054497;28;45644;-74
2021/09/14 09:38:31;;;;;;;;;12.33;12.00;;;;;20.80;79.63;100772.13;5055920;28;47473;-74
2021/09/14 09:40:58;;;;;;;;;14.00;11.67;;;;;20.89;80.43;100773.34;5065070;28;45962;-75
2021/09/14 09:43:31;;;;;;;;;11.00;11.00;;;;;20.96;79.83;100772.41;5053514;28;45461;-76
2021/09/14 09:46:09;;;;;;;;;11.67;11.67;;;;;20.97;79.99;100761.34;5051950;28;45453;-74
2021/09/14 09:48:36;;;;;;;;;16.00;14.67;;;;;21.02;79.38;100764.16;5057185;28;45669;-74
2021/09/14 09:51:03;;;;;;;;;12.67;12.00;;;;;21.10;79.98;100756.72;5052971;28;45292;-74
2021/09/14 09:53:33;;;;;;;;;13.33;13.33;;;;;21.18;79.23;100761.69;5054620;28;45473;-75
2021/09/14 09:56:00;;;;;;;;;13.00;12.00;;;;;21.22;78.89;100753.94;5058316;28;46197;-79
2021/09/14 09:58:27;;;;;;;;;13.33;13.33;;;;;21.29;79.77;100760.81;5061454;28;48515;-74
2021/09/14 10:01:04;;;;;;;;;14.00;12.00;;;;;21.35;79.51;100763.59;5056748;28;46223;-75
2021/09/14 10:03:34;;;;;;;;;15.00;15.00;;;;;21.40;79.24;100760.97;5056596;28;45327;-75
2021/09/14 10:06:02;;;;;;;;;14.00;13.33;;;;;;;;5057556;28;45443;-75
2021/09/14 10:08:28;;;;;;;;;14.67;14.00;;;;;21.50;79.16;100750.31;5056125;28;46510;-75
2021/09/14 10:10:58;;;;;;;;;14.33;13.67;;;;;21.59;78.93;100758.00;5056440;28;45348;-77
2021/09/14 10:13:29;;;;;;;;;17.33;15.67;;;;;21.68;79.00;100748.41;5064539;28;45709;-77
2021/09/14 10:15:58;;;;;;;;;13.33;13.33;;;;;21.70;78.71;100741.66;5050058;28;45499;-80
2021/09/14 10:21:59;;;;;;;;;17.33;17.33;;;;;21.90;78.90;100736.81;5052062;28;45636;-77
2021/09/14 10:24:25;;;;;;;;;19.00;17.67;;;;;21.95;78.76;100736.88;5059547;28;45374;-75
2021/09/14 10:27:09;;;;;;;;;18.00;17.00;;;;;22.06;78.55;100735.13;5052054;28;46188;-76
2021/09/14 10:29:36;;;;;;;;;16.67;15.33;;;;;22.15;78.77;100733.59;5057585;28;47322;-76
2021/09/14 10:32:11;;;;;;;;;16.67;16.00;;;;;22.23;77.75;100736.94;5052302;28;45471;-76
2021/09/14 10:34:42;;;;;;;;;18.00;18.00;;;;;22.32;77.94;100740.81;5051974;28;47550;-77
2021/09/14 10:37:12;;;;;;;;;21.00;19.67;;;;;22.36;78.21;100733.84;5068499;28;46025;-75
2021/09/14 10:39:41;;;;;;;;;22.00;21.33;;;;;22.37;77.79;100716.53;5052949;28;45412;-74
2021/09/14 10:42:19;;;;;;;;;16.00;16.00;;;;;22.38;77.63;100712.72;5052280;28;45439;-76
2021/09/14 10:44:49;;;;;;;;;14.33;14.00;;;;;22.45;77.86;100717.97;5053255;28;45441;-76
2021/09/14 10:47:20;;;;;;;;;21.00;20.00;;;;;22.53;77.49;100722.91;5051594;28;45466;-78
2021/09/14 10:49:52;;;;;;;;;19.33;17.00;;;;;22.57;78.02;100702.38;5055428;28;46047;-77
2021/09/14 10:52:33;;;;;;;;;17.00;17.00;;;;;22.63;77.18;100721.41;5049391;28;45424;-77
2021/09/14 10:55:03;;;;;;;;;20.33;20.00;;;;;22.74;77.36;100717.72;5053569;28;45343;-75
2021/09/14 10:57:34;;;;;;;;;20.00;19.67;;;;;22.82;76.99;100721.84;5058073;28;46128;-76
2021/09/14 10:59:59;;;;;;;;;22.33;19.33;;;;;22.91;77.23;100716.78;5057661;28;46210;-74
2021/09/14 11:02:25;;;;;;;;;20.67;19.00;;;;;23.01;77.10;100719.56;5059909;28;45470;-75
2021/09/14 11:04:51;;;;;;;;;14.33;14.00;;;;;23.05;75.73;100723.38;5058634;28;45481;-75
2021/09/14 11:07:21;;;;;;;;;19.33;18.33;;;;;23.09;76.05;100723.69;5057292;28;46303;-77
2021/09/14 11:09:57;;;;;;;;;19.67;18.67;;;;;23.10;76.29;100702.84;5056062;28;46998;-77
2021/09/14 11:12:30;;;;;;;;;18.67;17.67;;;;;23.20;75.94;100713.75;5059406;28;45497;-77
2021/09/14 11:14:57;;;;;;;;;16.67;16.67;;;;;23.23;76.09;100712.41;5059111;28;45499;-77
2021/09/14 11:17:24;;;;;;;;;16.67;16.67;;;;;23.26;75.15;100710.00;5055413;28;45488;-76
2021/09/14 11:19:51;;;;;;;;;18.67;18.67;;;;;23.36;75.70;100713.84;5059469;28;47634;-74
2021/09/14 11:22:34;;;;;;;;;16.33;16.33;;;;;23.39;75.82;100713.34;5051992;28;45326;-74
2021/09/14 11:25:01;;;;;;;;;17.00;17.00;;;;;23.40;76.02;100713.09;5057364;28;45504;-74
2021/09/14 11:27:26;;;;;;;;;16.00;16.00;;;;;23.41;74.59;100692.22;5058330;28;45906;-75
2021/09/14 11:29:52;;;;;;;;;16.00;16.00;;;;;23.57;75.42;100714.81;5061409;28;45221;-77
2021/09/14 11:32:18;;;;;;;;;17.00;16.00;;;;;23.64;75.52;100711.88;5058038;28;45314;-76
2021/09/14 11:34:44;;;;;;;;;15.33;15.33;;;;;23.75;75.21;100710.84;5059441;28;45325;-76
2021/09/14 11:37:09;;;;;;;;;17.00;17.00;;;;;23.86;75.03;100713.59;5057949;28;45842;-77
2021/09/14 11:39:38;;;;;;;;;17.00;16.67;;;;;23.95;74.69;100714.72;5055435;28;46025;-78
2021/09/14 11:42:08;;;;;;;;;15.00;14.00;;;;;23.96;73.93;100714.47;5056734;28;45383;-77
2021/09/14 11:44:34;;;;;;;;;16.00;16.00;;;;;23.94;74.37;100708.47;5050335;28;45330;-76
2021/09/14 11:47:08;;;;;;;;;14.00;14.00;;;;;23.94;73.72;100711.19;5057866;28;45536;-77
2021/09/14 11:49:33;;;;;;;;;13.33;13.33;;;;;23.93;74.34;100701.41;5058135;28;47136;-78
2021/09/14 11:52:04;;;;;;;;;15.67;15.33;;;;;23.96;73.60;100710.91;5054339;28;45335;-77
2021/09/14 11:54:34;;;;;;;;;10.67;10.67;;;;;23.99;73.77;100707.69;5060883;28;45415;-77
2021/09/14 11:56:59;;;;;;;;;10.67;10.67;;;;;24.01;73.74;100710.13;5053284;28;45906;-78
2021/09/14 11:59:37;;;;;;;;;15.00;14.67;;;;;24.03;73.83;100703.34;5056576;28;45578;-78
2021/09/14 12:02:04;;;;;;;;;12.67;12.67;;;;;24.09;74.13;100699.56;5054803;28;45418;-77
2021/09/14 12:04:29;;;;;;;;;15.00;14.00;;;;;24.09;73.46;100701.47;5056487;28;45451;-77
2021/09/14 12:06:56;;;;;;;;;13.00;12.33;;;;;24.16;73.47;100702.06;5053947;28;45424;-78
2021/09/14 12:09:23;;;;;;;;;13.33;11.67;;;;;24.20;73.51;100694.19;5056599;28;46023;-77
2021/09/14 12:12:03;;;;;;;;;14.33;13.67;;;;;24.18;73.30;100697.19;5054853;28;45775;-77